createdAt,value
2022-09-24T00:04:52.611Z,21.20
2022-09-24T00:09:55.394Z,20.50
2022-09-24T00:14:58.234Z,21.60
2022-09-24T00:20:01.370Z,29.00
2022-09-24T00:25:23.405Z,21.70
2022-09-24T00:30:26.329Z,22.20
2022-09-24T00:35:32.203Z,22.30
2022-09-24T00:40:37.303Z,17.20
2022-09-24T00:45:42.614Z,21.60
2022-09-24T00:50:46.044Z,20.00
2022-09-24T00:55:54.718Z,19.60
2022-09-24T01:01:04.459Z,18.20
2022-09-24T01:06:09.447Z,20.80
2022-09-24T01:11:40.781Z,21.80
2022-09-24T01:17:00.202Z,20.90
2022-09-24T01:22:30.601Z,20.70
2022-09-24T01:28:00.354Z,20.90
2022-09-24T01:33:08.298Z,28.10
2022-09-24T01:38:21.554Z,16.60
2022-09-24T01:43:27.206Z,21.30
2022-09-24T01:48:30.564Z,21.50
2022-09-24T01:53:44.958Z,20.70
2022-09-24T02:03:57.804Z,19.90
2022-09-24T02:09:00.829Z,19.60
2022-09-24T02:14:09.671Z,19.20
2022-09-24T02:19:17.472Z,23.10
2022-09-24T02:24:29.677Z,19.10
2022-09-24T02:29:32.503Z,21.50
2022-09-24T02:34:47.248Z,21.40
2022-09-24T02:39:50.916Z,19.90
2022-09-24T02:44:57.474Z,20.30
2022-09-24T02:50:00.672Z,21.30
2022-09-24T02:55:05.125Z,24.40
2022-09-24T03:00:08.967Z,28.30
2022-09-24T03:05:12.657Z,23.90
2022-09-24T03:10:15.509Z,22.60
2022-09-24T03:15:18.308Z,23.40
2022-09-24T03:20:21.749Z,21.70
2022-09-24T03:25:25.872Z,21.40
2022-09-24T03:30:47.025Z,16.40
2022-09-24T03:35:49.843Z,16.70
2022-09-24T03:40:53.256Z,18.30
2022-09-24T03:45:56.191Z,20.20
2022-09-24T03:51:14.138Z,25.50
2022-09-24T03:56:17.090Z,17.50
2022-09-24T04:01:22.020Z,16.40
2022-09-24T04:06:27.135Z,17.80
2022-09-24T04:11:29.941Z,21.60
2022-09-24T04:16:33.029Z,20.70
2022-09-24T04:21:36.217Z,18.20
2022-09-24T04:26:39.121Z,17.80
2022-09-24T04:31:42.033Z,19.20
2022-09-24T04:36:44.878Z,18.60
2022-09-24T04:41:48.040Z,17.40
2022-09-24T04:46:50.927Z,19.40
2022-09-24T04:51:53.709Z,17.60
2022-09-24T04:56:56.569Z,20.10
2022-09-24T05:01:59.520Z,19.80
2022-09-24T05:07:02.398Z,20.20
2022-09-24T05:12:05.937Z,20.70
2022-09-24T05:17:08.696Z,21.70
2022-09-24T05:22:11.725Z,17.10
2022-09-24T05:27:14.502Z,16.20
2022-09-24T05:32:19.965Z,21.70
2022-09-24T05:37:22.796Z,19.50
2022-09-24T05:42:25.757Z,18.80
2022-09-24T05:47:28.641Z,16.10
2022-09-24T05:52:31.529Z,19.00
2022-09-24T05:57:34.552Z,18.40
2022-09-24T06:02:37.480Z,20.10
2022-09-24T06:07:40.352Z,17.20
2022-09-24T06:12:44.051Z,17.80
2022-09-24T06:17:47.234Z,17.20
2022-09-24T06:22:50.698Z,21.40
2022-09-24T06:28:00.461Z,15.80
2022-09-24T06:33:14.039Z,21.60
2022-09-24T06:38:18.527Z,18.50
2022-09-24T06:43:21.438Z,16.70
2022-09-24T06:48:25.022Z,17.60
2022-09-24T06:53:27.993Z,23.50
2022-09-24T06:58:31.084Z,18.20
2022-09-24T07:03:34.640Z,20.40
2022-09-24T07:08:38.295Z,14.70
2022-09-24T07:13:41.170Z,15.10
2022-09-24T07:18:44.044Z,18.10
2022-09-24T07:23:47.490Z,18.60
2022-09-24T07:28:50.342Z,16.90
2022-09-24T07:33:53.603Z,18.00
2022-09-24T07:38:56.523Z,20.60
2022-09-24T07:43:59.346Z,19.40
2022-09-24T07:49:02.393Z,17.30
2022-09-24T07:54:06.450Z,17.60
2022-09-24T07:59:11.332Z,18.10
2022-09-24T08:04:14.337Z,20.20
2022-09-24T08:09:17.375Z,23.90
2022-09-24T08:14:20.498Z,20.60
2022-09-24T08:19:23.377Z,22.00
2022-09-24T08:24:26.355Z,17.70
2022-09-24T08:29:29.142Z,16.00
2022-09-24T08:34:38.416Z,17.80
2022-09-24T08:39:41.271Z,14.00
2022-09-24T08:45:04.618Z,14.80
2022-09-24T08:50:17.550Z,14.60
2022-09-24T08:55:25.920Z,11.60
2022-09-24T09:00:36.426Z,12.60
2022-09-24T09:05:49.636Z,12.00
2022-09-24T09:10:58.695Z,14.00
2022-09-24T09:16:07.116Z,13.80
2022-09-24T09:21:24.595Z,8.80
2022-09-24T09:26:28.019Z,8.10
2022-09-24T09:31:40.044Z,8.70
2022-09-24T09:37:14.048Z,8.00
2022-09-24T09:42:36.495Z,9.70
2022-09-24T09:47:51.016Z,8.60
2022-09-24T09:52:54.892Z,8.40
2022-09-24T09:58:16.092Z,7.50
2022-09-24T10:03:26.376Z,5.10
2022-09-24T10:08:30.205Z,7.60
2022-09-24T10:13:33.675Z,6.30
2022-09-24T10:18:43.542Z,6.60
2022-09-24T10:23:50.311Z,9.00
2022-09-24T10:29:12.020Z,5.30
2022-09-24T10:34:29.055Z,10.00
2022-09-24T10:39:31.972Z,7.90
2022-09-24T10:44:37.228Z,5.10
2022-09-24T10:50:01.418Z,5.90
2022-09-24T10:55:15.210Z,6.70
2022-09-24T11:00:28.611Z,8.50
2022-09-24T11:05:57.265Z,5.90
2022-09-24T11:11:09.729Z,14.60
2022-09-24T11:16:39.141Z,8.90
2022-09-24T11:22:38.927Z,17.00
2022-09-24T11:28:01.307Z,10.60
2022-09-24T11:33:26.349Z,4.30
2022-09-24T11:39:04.801Z,5.80
2022-09-24T11:44:28.722Z,4.90
2022-09-24T11:50:11.246Z,6.60
2022-09-24T11:55:22.181Z,4.60
2022-09-24T12:00:32.515Z,3.60
2022-09-24T12:05:39.624Z,5.00
2022-09-24T12:10:51.520Z,4.40
2022-09-24T12:16:03.667Z,3.80
2022-09-24T12:21:13.233Z,8.20
2022-09-24T12:26:17.854Z,4.80
2022-09-24T12:31:47.104Z,3.10
2022-09-24T12:37:11.761Z,3.10
2022-09-24T12:42:17.296Z,3.30
2022-09-24T12:47:25.912Z,2.60
2022-09-24T12:52:36.600Z,2.60
2022-09-24T12:57:42.705Z,2.60
2022-09-24T13:02:47.864Z,5.50
2022-09-24T13:08:24.834Z,4.50
2022-09-24T13:13:30.890Z,3.00
2022-09-24T13:18:36.115Z,2.40
2022-09-24T13:23:49.754Z,3.90
2022-09-24T13:29:01.622Z,2.80
2022-09-24T13:34:10.453Z,2.70
2022-09-24T13:39:34.703Z,4.20
2022-09-24T13:44:43.887Z,3.50
2022-09-24T13:49:50.378Z,3.10
2022-09-24T13:54:57.214Z,2.00
2022-09-24T14:00:16.415Z,5.30
2022-09-24T14:05:20.067Z,5.80
2022-09-24T14:10:25.295Z,3.50
2022-09-24T14:15:28.309Z,2.00
2022-09-24T14:20:35.441Z,28.10
2022-09-24T14:25:39.923Z,3.40
2022-09-24T14:30:55.328Z,3.60
2022-09-24T14:41:25.163Z,3.40
2022-09-24T14:46:48.836Z,2.50
2022-09-24T14:51:55.303Z,3.40
2022-09-24T14:57:10.974Z,4.70
2022-09-24T15:07:30.121Z,4.60
2022-09-24T15:12:36.624Z,3.60
2022-09-24T15:17:39.618Z,4.20
2022-09-24T15:22:42.606Z,6.10
2022-09-24T15:27:45.862Z,8.40
2022-09-24T15:32:50.175Z,6.40
2022-09-24T15:37:53.142Z,4.80
2022-09-24T15:42:56.185Z,6.10
2022-09-24T15:47:59.155Z,3.90
2022-09-24T15:53:02.593Z,3.90
2022-09-24T15:58:15.812Z,3.30
2022-09-24T16:03:30.254Z,3.60
2022-09-24T16:08:33.171Z,4.60
2022-09-24T16:13:36.266Z,4.80
2022-09-24T16:18:40.833Z,3.60
2022-09-24T16:23:43.839Z,4.00
2022-09-24T16:28:47.614Z,8.90
2022-09-24T16:33:50.542Z,4.50
2022-09-24T16:38:53.387Z,4.30
2022-09-24T16:43:57.010Z,6.00
2022-09-24T16:48:59.945Z,7.70
2022-09-24T16:54:03.081Z,5.70
2022-09-24T16:59:06.230Z,8.70
2022-09-24T17:04:09.806Z,6.30
2022-09-24T17:09:31.610Z,7.80
2022-09-24T17:14:37.624Z,9.50
2022-09-24T17:19:40.588Z,8.20
2022-09-24T17:24:43.793Z,7.00
2022-09-24T17:29:47.920Z,6.40
2022-09-24T17:34:50.896Z,9.30
2022-09-24T17:39:53.709Z,14.90
2022-09-24T17:44:56.585Z,12.40
2022-09-24T17:50:00.151Z,11.90
2022-09-24T17:55:08.485Z,11.00
2022-09-24T18:00:11.742Z,9.60
2022-09-24T18:05:14.846Z,14.20
2022-09-24T18:10:20.365Z,12.40
2022-09-24T18:15:23.168Z,14.90
2022-09-24T18:20:26.386Z,13.30
2022-09-24T18:25:29.418Z,12.50
2022-09-24T18:30:32.793Z,15.10
2022-09-24T18:35:35.665Z,12.30
2022-09-24T18:40:38.712Z,15.10
2022-09-24T18:45:41.809Z,14.10
2022-09-24T18:50:45.203Z,17.10
2022-09-24T18:55:48.091Z,15.90
2022-09-24T19:00:51.421Z,18.30
2022-09-24T19:05:56.453Z,18.10
2022-09-24T19:11:14.473Z,18.20
2022-09-24T19:16:19.619Z,18.40
2022-09-24T19:21:26.037Z,17.60
2022-09-24T19:26:32.290Z,18.40
2022-09-24T19:31:38.222Z,19.80
2022-09-24T19:36:44.928Z,18.90
2022-09-24T19:41:53.086Z,17.00
2022-09-24T19:46:56.166Z,16.90
2022-09-24T19:51:58.970Z,19.90
2022-09-24T19:57:01.870Z,17.20
2022-09-24T20:02:04.888Z,21.20
2022-09-24T20:07:08.277Z,18.30
2022-09-24T20:12:17.070Z,15.50
2022-09-24T20:17:19.902Z,19.90
2022-09-24T20:22:23.247Z,19.80
2022-09-24T20:27:44.873Z,17.30
2022-09-24T20:32:48.422Z,19.20
2022-09-24T20:37:51.458Z,18.10
2022-09-24T20:42:54.280Z,16.20
2022-09-24T20:47:57.388Z,26.10
2022-09-24T20:53:00.260Z,19.70
2022-09-24T20:58:03.305Z,21.90
2022-09-24T21:03:25.669Z,23.70
2022-09-24T21:08:37.662Z,22.80
2022-09-24T21:13:43.903Z,24.70
2022-09-24T21:18:47.802Z,24.40
2022-09-24T21:23:53.568Z,20.20
2022-09-24T21:29:01.121Z,23.30
2022-09-24T21:34:06.931Z,19.90
2022-09-24T21:39:23.194Z,22.70
2022-09-24T21:44:26.275Z,19.60
2022-09-24T21:49:29.826Z,22.40
2022-09-24T21:54:35.959Z,25.20
2022-09-24T21:59:57.373Z,28.00
2022-09-24T22:05:01.682Z,25.30
2022-09-24T22:10:05.529Z,26.70
2022-09-24T22:15:08.547Z,22.60
2022-09-24T22:20:11.409Z,24.00
2022-09-24T22:25:14.365Z,22.80
2022-09-24T22:30:17.427Z,26.00
2022-09-24T22:35:43.250Z,25.40
2022-09-24T22:40:46.566Z,21.80
2022-09-24T22:45:49.456Z,21.60
2022-09-24T22:50:52.971Z,24.30
2022-09-24T22:56:06.186Z,20.90
2022-09-24T23:01:21.699Z,22.20
2022-09-24T23:06:24.871Z,23.00
2022-09-24T23:11:33.389Z,22.80
2022-09-24T23:16:37.695Z,26.80
2022-09-24T23:21:41.670Z,22.50
2022-09-24T23:26:45.098Z,24.50
2022-09-24T23:31:48.313Z,26.30
2022-09-24T23:36:51.104Z,25.40
2022-09-24T23:41:54.061Z,25.00
2022-09-24T23:46:57.665Z,22.10
2022-09-24T23:52:00.677Z,28.70
2022-09-24T23:57:06.959Z,24.80
